createdAt,value
2023-03-17T00:03:29.299Z,3.40
2023-03-17T00:08:35.761Z,3.25
2023-03-17T00:13:38.087Z,2.97
2023-03-17T00:18:39.926Z,3.30
2023-03-17T00:23:44.755Z,3.17
2023-03-17T00:28:46.715Z,3.50
2023-03-17T00:33:50.332Z,2.95
2023-03-17T00:38:52.685Z,3.10
2023-03-17T00:43:54.504Z,2.97
2023-03-17T00:48:56.417Z,2.80
2023-03-17T00:53:58.113Z,2.92
2023-03-17T00:59:02.689Z,2.80
2023-03-17T01:04:04.684Z,3.03
2023-03-17T01:09:06.484Z,2.78
2023-03-17T01:14:10.016Z,2.50
2023-03-17T01:19:13.145Z,2.28
2023-03-17T01:24:14.966Z,2.80
2023-03-17T01:29:17.582Z,2.65
2023-03-17T01:34:19.363Z,2.60
2023-03-17T01:39:21.206Z,2.20
2023-03-17T01:44:24.075Z,2.53
2023-03-17T01:49:37.402Z,2.40
2023-03-17T01:55:02.947Z,2.58
2023-03-17T02:00:16.218Z,2.50
2023-03-17T02:05:21.654Z,2.17
2023-03-17T02:10:26.511Z,2.10
2023-03-17T02:15:46.704Z,2.13
2023-03-17T02:20:48.383Z,2.00
2023-03-17T02:25:52.833Z,2.30
2023-03-17T02:30:54.624Z,2.00
2023-03-17T02:35:57.365Z,1.90
2023-03-17T02:40:59.140Z,2.22
2023-03-17T02:46:01.269Z,1.98
2023-03-17T02:51:03.988Z,1.95
2023-03-17T02:56:06.336Z,1.83
2023-03-17T03:01:09.575Z,2.10
2023-03-17T03:06:11.340Z,1.85
2023-03-17T03:11:13.205Z,1.77
2023-03-17T03:16:15.644Z,2.00
2023-03-17T03:21:17.562Z,2.30
2023-03-17T03:26:19.444Z,1.90
2023-03-17T03:31:21.644Z,1.85
2023-03-17T03:36:23.580Z,2.10
2023-03-17T03:41:25.445Z,1.85
2023-03-17T03:46:27.757Z,2.00
2023-03-17T03:51:29.574Z,2.17
2023-03-17T03:56:31.260Z,2.30
2023-03-17T04:01:33.020Z,2.00
2023-03-17T04:06:34.734Z,1.90
2023-03-17T04:11:36.754Z,1.80
2023-03-17T04:16:38.502Z,1.55
2023-03-17T04:21:40.238Z,2.00
2023-03-17T04:26:42.217Z,2.10
2023-03-17T04:31:44.065Z,1.85
2023-03-17T04:36:47.258Z,1.60
2023-03-17T04:41:49.016Z,1.50
2023-03-17T04:46:51.029Z,1.90
2023-03-17T04:51:52.795Z,2.05
2023-03-17T04:56:54.704Z,1.83
2023-03-17T05:01:56.515Z,2.05
2023-03-17T05:06:58.363Z,1.77
2023-03-17T05:12:00.315Z,1.70
2023-03-17T05:17:02.507Z,2.08
2023-03-17T05:22:04.872Z,2.08
2023-03-17T05:27:06.762Z,2.40
2023-03-17T05:32:08.632Z,2.28
2023-03-17T05:37:10.934Z,1.92
2023-03-17T05:42:12.886Z,2.08
2023-03-17T05:47:14.751Z,2.33
2023-03-17T05:52:16.548Z,2.35
2023-03-17T05:57:18.305Z,2.10
2023-03-17T06:02:20.928Z,2.00
2023-03-17T06:07:22.776Z,1.80
2023-03-17T06:12:24.655Z,1.80
2023-03-17T06:17:26.449Z,1.70
2023-03-17T06:22:28.139Z,1.90
2023-03-17T06:27:30.701Z,2.40
2023-03-17T06:32:33.047Z,2.10
2023-03-17T06:37:35.234Z,1.92
2023-03-17T06:42:36.975Z,2.55
2023-03-17T06:47:39.654Z,1.90
2023-03-17T06:52:41.945Z,1.63
2023-03-17T06:57:43.846Z,1.65
2023-03-17T07:02:46.112Z,2.08
2023-03-17T07:07:47.830Z,1.80
2023-03-17T07:12:49.605Z,1.92
2023-03-17T07:17:51.816Z,1.50
2023-03-17T07:22:53.534Z,1.55
2023-03-17T07:27:56.562Z,2.00
2023-03-17T07:32:58.361Z,1.85
2023-03-17T07:38:00.159Z,1.67
2023-03-17T07:43:02.557Z,1.67
2023-03-17T07:48:05.848Z,1.75
2023-03-17T07:53:07.739Z,1.83
2023-03-17T07:58:10.565Z,1.90
2023-03-17T08:03:12.642Z,1.45
2023-03-17T08:08:15.383Z,1.45
2023-03-17T08:13:17.945Z,1.70
2023-03-17T08:18:19.741Z,1.65
2023-03-17T08:23:22.391Z,1.90
2023-03-17T08:28:24.460Z,1.67
2023-03-17T08:33:26.216Z,1.60
2023-03-17T08:38:28.329Z,1.90
2023-03-17T08:43:30.152Z,1.50
2023-03-17T08:48:32.836Z,1.40
2023-03-17T08:53:35.006Z,1.17
2023-03-17T08:58:39.806Z,1.45
2023-03-17T09:03:42.629Z,1.52
2023-03-17T09:08:45.311Z,1.60
2023-03-17T09:13:47.771Z,1.30
2023-03-17T09:18:50.151Z,1.40
2023-03-17T09:23:51.941Z,1.30
2023-03-17T09:28:54.500Z,1.50
2023-03-17T09:33:56.219Z,1.58
2023-03-17T09:38:57.977Z,1.73
2023-03-17T09:44:18.589Z,1.38
2023-03-17T09:49:40.278Z,1.67
2023-03-17T09:54:43.286Z,1.67
2023-03-17T09:59:55.027Z,1.30
2023-03-17T10:04:57.510Z,1.50
2023-03-17T10:10:01.439Z,1.40
2023-03-17T10:15:11.412Z,1.30
2023-03-17T10:20:25.207Z,1.40
2023-03-17T10:25:31.809Z,1.27
2023-03-17T10:30:34.466Z,1.35
2023-03-17T10:35:39.352Z,1.33
2023-03-17T10:40:41.833Z,1.70
2023-03-17T10:45:57.562Z,1.40
2023-03-17T10:50:59.483Z,1.40
2023-03-17T10:56:10.444Z,1.20
2023-03-17T11:01:39.158Z,1.50
2023-03-17T11:06:44.152Z,1.50
2023-03-17T11:11:48.066Z,1.20
2023-03-17T11:22:29.984Z,1.10
2023-03-17T11:27:35.508Z,1.10
2023-03-17T11:33:02.429Z,1.02
2023-03-17T11:38:20.559Z,1.20
2023-03-17T11:43:40.008Z,1.13
2023-03-17T11:49:05.590Z,1.00
2023-03-17T11:54:13.983Z,1.10
2023-03-17T11:59:31.951Z,1.08
2023-03-17T12:04:41.962Z,1.02
2023-03-17T12:10:06.506Z,1.10
2023-03-17T12:15:18.750Z,1.13
2023-03-17T12:20:31.978Z,1.00
2023-03-17T12:25:59.420Z,1.05
2023-03-17T12:31:17.438Z,0.88
2023-03-17T12:36:20.901Z,0.70
2023-03-17T12:41:49.289Z,0.80
2023-03-17T12:47:23.910Z,0.80
2023-03-17T12:52:47.253Z,0.80
2023-03-17T12:58:14.920Z,1.00
2023-03-17T13:03:24.073Z,0.80
2023-03-17T13:08:32.011Z,0.70
2023-03-17T13:13:59.451Z,0.60
2023-03-17T13:19:23.825Z,0.85
2023-03-17T13:24:48.056Z,1.10
2023-03-17T13:29:49.923Z,0.70
2023-03-17T13:35:02.186Z,0.63
2023-03-17T13:40:21.399Z,0.90
2023-03-17T13:45:42.039Z,0.70
2023-03-17T13:50:43.821Z,0.90
2023-03-17T13:56:09.365Z,0.75
2023-03-17T14:01:14.145Z,0.80
2023-03-17T14:06:18.123Z,0.80
2023-03-17T14:11:32.894Z,0.80
2023-03-17T14:16:45.440Z,0.80
2023-03-17T14:21:47.763Z,0.80
2023-03-17T14:26:51.786Z,0.80
2023-03-17T14:32:05.629Z,1.00
2023-03-17T14:37:11.341Z,0.95
2023-03-17T14:42:13.151Z,0.80
2023-03-17T14:47:23.381Z,0.80
2023-03-17T14:52:28.270Z,1.00
2023-03-17T14:57:33.107Z,0.70
2023-03-17T15:02:37.765Z,0.73
2023-03-17T15:07:42.324Z,0.65
2023-03-17T15:12:48.743Z,0.90
2023-03-17T15:17:54.665Z,0.60
2023-03-17T15:23:02.904Z,0.70
2023-03-17T15:28:16.964Z,0.65
2023-03-17T15:38:24.907Z,0.73
2023-03-17T15:43:26.601Z,0.88
2023-03-17T15:48:31.336Z,1.10
2023-03-17T15:53:33.124Z,1.67
2023-03-17T15:58:34.980Z,0.70
2023-03-17T16:03:37.642Z,0.75
2023-03-17T16:08:39.474Z,0.82
2023-03-17T16:13:41.268Z,0.77
2023-03-17T16:18:43.123Z,0.80
2023-03-17T16:23:45.634Z,0.73
2023-03-17T16:28:49.001Z,0.80
2023-03-17T16:33:52.671Z,0.93
2023-03-17T16:38:54.405Z,0.80
2023-03-17T16:44:02.799Z,0.90
2023-03-17T16:49:05.993Z,0.90
2023-03-17T16:54:08.353Z,1.23
2023-03-17T16:59:16.847Z,0.90
2023-03-17T17:04:18.648Z,0.90
2023-03-17T17:09:20.385Z,1.05
2023-03-17T17:14:22.166Z,0.95
2023-03-17T17:19:23.953Z,0.90
2023-03-17T17:24:25.778Z,0.90
2023-03-17T17:29:27.557Z,0.80
2023-03-17T17:34:29.291Z,0.80
2023-03-17T17:39:31.027Z,0.80
2023-03-17T17:44:32.758Z,0.90
2023-03-17T17:49:34.460Z,0.70
2023-03-17T17:54:36.672Z,0.77
2023-03-17T17:59:38.400Z,0.70
2023-03-17T18:04:40.267Z,0.70
2023-03-17T18:09:42.041Z,0.80
2023-03-17T18:14:43.718Z,0.80
2023-03-17T18:19:45.648Z,1.08
2023-03-17T18:24:48.399Z,0.95
2023-03-17T18:29:50.272Z,1.05
2023-03-17T18:34:52.078Z,0.70
2023-03-17T18:40:12.040Z,0.85
2023-03-17T18:45:15.268Z,0.90
2023-03-17T18:50:18.267Z,0.98
2023-03-17T18:55:20.311Z,0.90
2023-03-17T19:00:25.133Z,0.82
2023-03-17T19:05:26.981Z,1.02
2023-03-17T19:10:28.762Z,0.90
2023-03-17T19:15:30.572Z,0.82
2023-03-17T19:20:34.343Z,0.80
2023-03-17T19:25:36.798Z,0.63
2023-03-17T19:30:39.270Z,0.90
2023-03-17T19:35:44.130Z,0.93
2023-03-17T19:40:46.041Z,1.00
2023-03-17T19:45:47.812Z,1.10
2023-03-17T19:50:49.945Z,0.88
2023-03-17T19:55:51.675Z,0.82
2023-03-17T20:00:53.422Z,1.10
2023-03-17T20:05:55.394Z,1.15
2023-03-17T20:10:57.378Z,0.90
2023-03-17T20:15:59.232Z,0.90
2023-03-17T20:21:05.302Z,1.00
2023-03-17T20:26:08.408Z,0.82
2023-03-17T20:31:10.469Z,0.90
2023-03-17T20:36:12.964Z,1.30
2023-03-17T20:41:17.165Z,0.90
2023-03-17T20:46:22.521Z,1.20
2023-03-17T20:51:25.933Z,0.90
2023-03-17T20:56:29.833Z,1.10
2023-03-17T21:01:33.680Z,0.95
2023-03-17T21:06:38.701Z,1.20
2023-03-17T21:11:41.021Z,1.05
2023-03-17T21:16:44.793Z,1.10
2023-03-17T21:21:46.522Z,1.17
2023-03-17T21:26:48.270Z,0.98
2023-03-17T21:31:50.569Z,1.08
2023-03-17T21:36:52.674Z,1.40
2023-03-17T21:41:56.406Z,1.13
2023-03-17T21:47:02.318Z,1.40
2023-03-17T21:52:06.875Z,1.30
2023-03-17T21:57:11.751Z,1.98
2023-03-17T22:02:14.159Z,1.45
2023-03-17T22:07:16.727Z,1.42
2023-03-17T22:12:19.273Z,1.30
2023-03-17T22:17:21.016Z,2.10
2023-03-17T22:22:22.764Z,2.00
2023-03-17T22:27:24.561Z,1.80
2023-03-17T22:32:26.542Z,1.70
2023-03-17T22:37:28.324Z,2.22
2023-03-17T22:42:30.036Z,1.67
2023-03-17T22:47:31.766Z,2.10
2023-03-17T22:52:33.487Z,2.72
2023-03-17T22:57:36.128Z,2.25
2023-03-17T23:02:37.819Z,2.72
2023-03-17T23:07:50.472Z,2.30
2023-03-17T23:12:53.071Z,2.63
2023-03-17T23:17:54.864Z,2.60
2023-03-17T23:22:56.997Z,3.15
2023-03-17T23:27:59.067Z,3.10
2023-03-17T23:33:01.233Z,3.20
2023-03-17T23:38:04.083Z,3.13
2023-03-17T23:43:05.919Z,2.95
2023-03-17T23:48:09.972Z,3.40
2023-03-17T23:53:12.056Z,3.33
2023-03-17T23:58:14.069Z,3.72
